sensor_id;sensor_type;location;lat;lon;timestamp;temperature;humidity
16732;DHT22;8484;50.904;9.192;2023-01-29T00:00:33;-2.40;99.90
16732;DHT22;8484;50.904;9.192;2023-01-29T00:03:00;-2.40;99.90
16732;DHT22;8484;50.904;9.192;2023-01-29T00:05:27;-2.30;99.90
16732;DHT22;8484;50.904;9.192;2023-01-29T00:07:58;-2.40;99.90
16732;DHT22;8484;50.904;9.192;2023-01-29T00:10:25;-2.40;99.90
16732;DHT22;8484;50.904;9.192;2023-01-29T00:12:52;-2.40;99.90
16732;DHT22;8484;50.904;9.192;2023-01-29T00:15:19;-2.50;99.90
16732;DHT22;8484;50.904;9.192;2023-01-29T00:17:47;-2.50;99.90
16732;DHT22;8484;50.904;9.192;2023-01-29T00:20:15;-2.50;99.90
16732;DHT22;8484;50.904;9.192;2023-01-29T00:22:42;-2.60;99.90
16732;DHT22;8484;50.904;9.192;2023-01-29T00:25:09;-2.60;99.90
16732;DHT22;8484;50.904;9.192;2023-01-29T00:27:36;-2.60;99.90
16732;DHT22;8484;50.904;9.192;2023-01-29T00:30:04;-2.60;99.90
16732;DHT22;8484;50.904;9.192;2023-01-29T00:32:38;-2.70;99.90
16732;DHT22;8484;50.904;9.192;2023-01-29T00:35:07;-2.70;99.90
16732;DHT22;8484;50.904;9.192;2023-01-29T00:37:35;-2.70;99.90
16732;DHT22;8484;50.904;9.192;2023-01-29T00:40:02;-2.70;99.90
16732;DHT22;8484;50.904;9.192;2023-01-29T00:42:29;-2.70;99.90
16732;DHT22;8484;50.904;9.192;2023-01-29T00:45:13;-2.70;99.90
16732;DHT22;8484;50.904;9.192;2023-01-29T00:47:40;-2.70;99.90
16732;DHT22;8484;50.904;9.192;2023-01-29T00:50:10;-2.70;99.90
16732;DHT22;8484;50.904;9.192;2023-01-29T00:52:37;-2.80;99.90
16732;DHT22;8484;50.904;9.192;2023-01-29T00:55:07;-2.80;99.90
16732;DHT22;8484;50.904;9.192;2023-01-29T00:57:36;-2.80;99.90
16732;DHT22;8484;50.904;9.192;2023-01-29T01:00:06;-2.80;99.90
16732;DHT22;8484;50.904;9.192;2023-01-29T01:02:33;-2.70;99.90
16732;DHT22;8484;50.904;9.192;2023-01-29T01:05:19;-2.70;99.90
16732;DHT22;8484;50.904;9.192;2023-01-29T01:07:47;-2.80;99.90
16732;DHT22;8484;50.904;9.192;2023-01-29T01:10:17;-2.80;99.90
16732;DHT22;8484;50.904;9.192;2023-01-29T01:12:48;-2.80;99.90
16732;DHT22;8484;50.904;9.192;2023-01-29T01:15:15;-2.80;99.90
16732;DHT22;8484;50.904;9.192;2023-01-29T01:17:42;-2.80;99.90
16732;DHT22;8484;50.904;9.192;2023-01-29T01:20:12;-2.80;99.90
16732;DHT22;8484;50.904;9.192;2023-01-29T01:22:40;-2.90;99.90
16732;DHT22;8484;50.904;9.192;2023-01-29T01:25:08;-2.90;99.90
16732;DHT22;8484;50.904;9.192;2023-01-29T01:27:35;-2.90;99.90
16732;DHT22;8484;50.904;9.192;2023-01-29T01:30:08;-2.90;99.90
16732;DHT22;8484;50.904;9.192;2023-01-29T01:32:35;-2.90;99.90
16732;DHT22;8484;50.904;9.192;2023-01-29T01:35:03;-2.90;99.90
16732;DHT22;8484;50.904;9.192;2023-01-29T01:37:30;-2.90;99.90
16732;DHT22;8484;50.904;9.192;2023-01-29T01:39:58;-3.00;99.90
16732;DHT22;8484;50.904;9.192;2023-01-29T01:42:27;-3.10;99.90
16732;DHT22;8484;50.904;9.192;2023-01-29T01:44:59;-3.10;99.90
16732;DHT22;8484;50.904;9.192;2023-01-29T01:47:36;-3.00;99.90
16732;DHT22;8484;50.904;9.192;2023-01-29T01:50:07;-3.00;99.90
16732;DHT22;8484;50.904;9.192;2023-01-29T01:52:39;-3.00;99.90
16732;DHT22;8484;50.904;9.192;2023-01-29T01:55:12;-2.90;99.90
16732;DHT22;8484;50.904;9.192;2023-01-29T01:57:41;-2.90;99.90
16732;DHT22;8484;50.904;9.192;2023-01-29T02:00:13;-2.90;99.90
16732;DHT22;8484;50.904;9.192;2023-01-29T02:02:42;-2.90;99.90
16732;DHT22;8484;50.904;9.192;2023-01-29T02:05:28;-3.00;99.90
16732;DHT22;8484;50.904;9.192;2023-01-29T02:08:14;-3.00;99.90
16732;DHT22;8484;50.904;9.192;2023-01-29T02:11:00;-3.00;99.90
16732;DHT22;8484;50.904;9.192;2023-01-29T02:13:27;-3.10;99.90
16732;DHT22;8484;50.904;9.192;2023-01-29T02:15:54;-3.10;99.90
16732;DHT22;8484;50.904;9.192;2023-01-29T02:18:21;-3.20;99.90
16732;DHT22;8484;50.904;9.192;2023-01-29T02:21:02;-3.30;99.90
16732;DHT22;8484;50.904;9.192;2023-01-29T02:26:49;-3.30;99.90
16732;DHT22;8484;50.904;9.192;2023-01-29T02:29:22;-3.40;99.90
16732;DHT22;8484;50.904;9.192;2023-01-29T02:32:06;-3.40;99.90
16732;DHT22;8484;50.904;9.192;2023-01-29T02:34:43;-3.40;99.90
16732;DHT22;8484;50.904;9.192;2023-01-29T02:37:34;-3.50;99.90
16732;DHT22;8484;50.904;9.192;2023-01-29T02:40:09;-3.40;99.90
16732;DHT22;8484;50.904;9.192;2023-01-29T02:42:41;-3.40;99.90
16732;DHT22;8484;50.904;9.192;2023-01-29T02:45:14;-3.40;99.90
16732;DHT22;8484;50.904;9.192;2023-01-29T02:47:47;-3.50;99.90
16732;DHT22;8484;50.904;9.192;2023-01-29T02:50:20;-3.50;99.90
16732;DHT22;8484;50.904;9.192;2023-01-29T02:52:54;-3.50;99.90
16732;DHT22;8484;50.904;9.192;2023-01-29T02:55:27;-3.50;99.90
16732;DHT22;8484;50.904;9.192;2023-01-29T02:58:01;-3.40;99.90
16732;DHT22;8484;50.904;9.192;2023-01-29T03:00:34;-3.50;99.90
16732;DHT22;8484;50.904;9.192;2023-01-29T03:03:06;-3.50;99.90
16732;DHT22;8484;50.904;9.192;2023-01-29T03:05:41;-3.50;99.90
16732;DHT22;8484;50.904;9.192;2023-01-29T03:08:14;-3.50;99.90
16732;DHT22;8484;50.904;9.192;2023-01-29T03:10:45;-3.60;99.90
16732;DHT22;8484;50.904;9.192;2023-01-29T03:13:15;-3.60;99.90
16732;DHT22;8484;50.904;9.192;2023-01-29T03:15:47;-3.70;99.90
16732;DHT22;8484;50.904;9.192;2023-01-29T03:18:17;-3.80;99.90
16732;DHT22;8484;50.904;9.192;2023-01-29T03:20:49;-3.80;99.90
16732;DHT22;8484;50.904;9.192;2023-01-29T03:23:21;-3.80;99.90
16732;DHT22;8484;50.904;9.192;2023-01-29T03:25:50;-3.80;99.90
16732;DHT22;8484;50.904;9.192;2023-01-29T03:28:38;-3.90;99.90
16732;DHT22;8484;50.904;9.192;2023-01-29T03:31:28;-4.00;99.90
16732;DHT22;8484;50.904;9.192;2023-01-29T03:34:14;-4.00;99.90
16732;DHT22;8484;50.904;9.192;2023-01-29T03:36:52;-4.00;99.90
16732;DHT22;8484;50.904;9.192;2023-01-29T03:39:21;-4.20;99.90
16732;DHT22;8484;50.904;9.192;2023-01-29T03:41:53;-4.30;99.90
16732;DHT22;8484;50.904;9.192;2023-01-29T03:44:28;-4.20;99.90
16732;DHT22;8484;50.904;9.192;2023-01-29T03:47:03;-4.30;99.90
16732;DHT22;8484;50.904;9.192;2023-01-29T03:49:41;-4.20;99.90
16732;DHT22;8484;50.904;9.192;2023-01-29T03:52:18;-4.10;99.90
16732;DHT22;8484;50.904;9.192;2023-01-29T03:54:53;-4.10;99.90
16732;DHT22;8484;50.904;9.192;2023-01-29T03:57:29;-4.10;99.90
16732;DHT22;8484;50.904;9.192;2023-01-29T04:00:02;-4.10;99.90
16732;DHT22;8484;50.904;9.192;2023-01-29T04:02:38;-4.20;99.90
16732;DHT22;8484;50.904;9.192;2023-01-29T04:05:12;-4.20;99.90
16732;DHT22;8484;50.904;9.192;2023-01-29T04:07:43;-4.30;99.90
16732;DHT22;8484;50.904;9.192;2023-01-29T04:10:13;-4.40;99.90
16732;DHT22;8484;50.904;9.192;2023-01-29T04:12:49;-4.30;99.90
16732;DHT22;8484;50.904;9.192;2023-01-29T04:15:17;-4.40;99.90
16732;DHT22;8484;50.904;9.192;2023-01-29T04:17:49;-4.40;99.90
16732;DHT22;8484;50.904;9.192;2023-01-29T04:20:17;-4.30;99.90
16732;DHT22;8484;50.904;9.192;2023-01-29T04:22:48;-4.30;99.90
16732;DHT22;8484;50.904;9.192;2023-01-29T04:25:17;-4.30;99.90
16732;DHT22;8484;50.904;9.192;2023-01-29T04:27:56;-4.40;99.90
16732;DHT22;8484;50.904;9.192;2023-01-29T04:30:32;-4.30;99.90
16732;DHT22;8484;50.904;9.192;2023-01-29T04:33:10;-4.30;99.90
16732;DHT22;8484;50.904;9.192;2023-01-29T04:35:52;-4.30;99.90
16732;DHT22;8484;50.904;9.192;2023-01-29T04:38:30;-4.30;99.90
16732;DHT22;8484;50.904;9.192;2023-01-29T04:41:03;-4.30;99.90
16732;DHT22;8484;50.904;9.192;2023-01-29T04:43:43;-4.20;99.90
16732;DHT22;8484;50.904;9.192;2023-01-29T04:46:15;-4.20;99.90
16732;DHT22;8484;50.904;9.192;2023-01-29T04:48:55;-4.20;99.90
16732;DHT22;8484;50.904;9.192;2023-01-29T04:51:32;-4.20;99.90
16732;DHT22;8484;50.904;9.192;2023-01-29T04:54:07;-4.10;99.90
16732;DHT22;8484;50.904;9.192;2023-01-29T04:56:41;-4.10;99.90
16732;DHT22;8484;50.904;9.192;2023-01-29T04:59:14;-4.10;99.90
16732;DHT22;8484;50.904;9.192;2023-01-29T05:01:42;-4.20;99.90
16732;DHT22;8484;50.904;9.192;2023-01-29T05:04:13;-4.20;99.90
16732;DHT22;8484;50.904;9.192;2023-01-29T05:06:42;-4.20;99.90
16732;DHT22;8484;50.904;9.192;2023-01-29T05:09:12;-4.30;99.90
16732;DHT22;8484;50.904;9.192;2023-01-29T05:11:39;-4.30;99.90
16732;DHT22;8484;50.904;9.192;2023-01-29T05:14:10;-4.30;99.90
16732;DHT22;8484;50.904;9.192;2023-01-29T05:16:40;-4.30;99.90
16732;DHT22;8484;50.904;9.192;2023-01-29T05:19:13;-4.30;99.90
16732;DHT22;8484;50.904;9.192;2023-01-29T05:21:43;-4.30;99.90
16732;DHT22;8484;50.904;9.192;2023-01-29T05:24:12;-4.30;99.90
16732;DHT22;8484;50.904;9.192;2023-01-29T05:26:40;-4.30;99.90
16732;DHT22;8484;50.904;9.192;2023-01-29T05:29:25;-4.30;99.90
16732;DHT22;8484;50.904;9.192;2023-01-29T05:31:51;-4.30;99.90
16732;DHT22;8484;50.904;9.192;2023-01-29T05:34:20;-4.30;99.90
16732;DHT22;8484;50.904;9.192;2023-01-29T05:36:47;-4.30;99.90
16732;DHT22;8484;50.904;9.192;2023-01-29T05:39:14;-4.20;99.90
16732;DHT22;8484;50.904;9.192;2023-01-29T05:41:41;-4.20;99.90
16732;DHT22;8484;50.904;9.192;2023-01-29T05:44:15;-4.20;99.90
16732;DHT22;8484;50.904;9.192;2023-01-29T05:46:42;-4.10;99.90
16732;DHT22;8484;50.904;9.192;2023-01-29T05:49:10;-4.00;99.90
16732;DHT22;8484;50.904;9.192;2023-01-29T05:51:41;-4.00;99.90
16732;DHT22;8484;50.904;9.192;2023-01-29T05:54:10;-3.90;99.90
16732;DHT22;8484;50.904;9.192;2023-01-29T05:56:37;-3.80;99.90
16732;DHT22;8484;50.904;9.192;2023-01-29T05:59:04;-3.90;99.90
16732;DHT22;8484;50.904;9.192;2023-01-29T06:01:32;-4.00;99.90
16732;DHT22;8484;50.904;9.192;2023-01-29T06:03:58;-4.00;99.90
16732;DHT22;8484;50.904;9.192;2023-01-29T06:06:25;-4.10;99.90
16732;DHT22;8484;50.904;9.192;2023-01-29T06:08:54;-4.10;99.90
16732;DHT22;8484;50.904;9.192;2023-01-29T06:11:21;-4.10;99.90
16732;DHT22;8484;50.904;9.192;2023-01-29T06:13:48;-4.10;99.90
16732;DHT22;8484;50.904;9.192;2023-01-29T06:16:15;-4.20;99.90
16732;DHT22;8484;50.904;9.192;2023-01-29T06:18:42;-4.20;99.90
16732;DHT22;8484;50.904;9.192;2023-01-29T06:21:12;-4.20;99.90
16732;DHT22;8484;50.904;9.192;2023-01-29T06:23:39;-4.10;99.90
16732;DHT22;8484;50.904;9.192;2023-01-29T06:26:12;-4.20;99.90
16732;DHT22;8484;50.904;9.192;2023-01-29T06:28:39;-4.30;99.90
16732;DHT22;8484;50.904;9.192;2023-01-29T06:31:06;-4.30;99.90
16732;DHT22;8484;50.904;9.192;2023-01-29T06:33:33;-4.30;99.90
16732;DHT22;8484;50.904;9.192;2023-01-29T06:36:02;-4.40;99.90
16732;DHT22;8484;50.904;9.192;2023-01-29T06:38:30;-4.50;99.90
16732;DHT22;8484;50.904;9.192;2023-01-29T06:40:57;-4.50;99.90
16732;DHT22;8484;50.904;9.192;2023-01-29T06:43:25;-4.50;99.90
16732;DHT22;8484;50.904;9.192;2023-01-29T06:45:54;-4.60;99.90
16732;DHT22;8484;50.904;9.192;2023-01-29T06:48:22;-4.70;99.90
16732;DHT22;8484;50.904;9.192;2023-01-29T06:50:49;-4.80;99.90
16732;DHT22;8484;50.904;9.192;2023-01-29T06:53:16;-4.80;99.90
16732;DHT22;8484;50.904;9.192;2023-01-29T06:55:50;-4.80;99.90
16732;DHT22;8484;50.904;9.192;2023-01-29T06:58:17;-4.80;99.90
16732;DHT22;8484;50.904;9.192;2023-01-29T07:00:45;-4.90;99.90
16732;DHT22;8484;50.904;9.192;2023-01-29T07:03:13;-4.90;99.90
16732;DHT22;8484;50.904;9.192;2023-01-29T07:05:40;-4.80;99.90
16732;DHT22;8484;50.904;9.192;2023-01-29T07:08:07;-4.80;99.90
16732;DHT22;8484;50.904;9.192;2023-01-29T07:10:34;-4.70;99.90
16732;DHT22;8484;50.904;9.192;2023-01-29T07:13:01;-4.80;99.90
16732;DHT22;8484;50.904;9.192;2023-01-29T07:15:28;-4.70;99.90
16732;DHT22;8484;50.904;9.192;2023-01-29T07:17:57;-4.70;99.90
16732;DHT22;8484;50.904;9.192;2023-01-29T07:20:25;-4.70;99.90
16732;DHT22;8484;50.904;9.192;2023-01-29T07:22:53;-4.60;99.90
16732;DHT22;8484;50.904;9.192;2023-01-29T07:25:20;-4.60;99.90
16732;DHT22;8484;50.904;9.192;2023-01-29T07:27:47;-4.60;99.90
16732;DHT22;8484;50.904;9.192;2023-01-29T07:30:15;-4.60;99.90
16732;DHT22;8484;50.904;9.192;2023-01-29T07:32:42;-4.40;99.90
16732;DHT22;8484;50.904;9.192;2023-01-29T07:35:10;-4.20;99.90
16732;DHT22;8484;50.904;9.192;2023-01-29T07:37:37;-3.90;99.90
16732;DHT22;8484;50.904;9.192;2023-01-29T07:40:05;-3.80;99.90
16732;DHT22;8484;50.904;9.192;2023-01-29T07:42:36;-3.70;99.90
16732;DHT22;8484;50.904;9.192;2023-01-29T07:45:04;-3.40;99.90
16732;DHT22;8484;50.904;9.192;2023-01-29T07:47:31;-3.20;99.90
16732;DHT22;8484;50.904;9.192;2023-01-29T07:49:58;-2.90;99.90
16732;DHT22;8484;50.904;9.192;2023-01-29T07:52:28;-2.80;99.90
16732;DHT22;8484;50.904;9.192;2023-01-29T07:54:55;-2.80;99.90
16732;DHT22;8484;50.904;9.192;2023-01-29T07:57:22;-2.90;99.90
16732;DHT22;8484;50.904;9.192;2023-01-29T07:59:49;-2.80;99.90
16732;DHT22;8484;50.904;9.192;2023-01-29T08:02:16;-2.80;99.90
16732;DHT22;8484;50.904;9.192;2023-01-29T08:04:43;-2.80;99.90
16732;DHT22;8484;50.904;9.192;2023-01-29T08:07:10;-2.80;99.90
16732;DHT22;8484;50.904;9.192;2023-01-29T08:09:38;-2.90;99.90
16732;DHT22;8484;50.904;9.192;2023-01-29T08:12:05;-2.90;99.90
16732;DHT22;8484;50.904;9.192;2023-01-29T08:14:32;-2.90;99.90
16732;DHT22;8484;50.904;9.192;2023-01-29T08:16:59;-2.90;99.90
16732;DHT22;8484;50.904;9.192;2023-01-29T08:19:26;-2.90;99.90
16732;DHT22;8484;50.904;9.192;2023-01-29T08:21:53;-2.80;99.90
16732;DHT22;8484;50.904;9.192;2023-01-29T08:24:19;-2.80;99.90
16732;DHT22;8484;50.904;9.192;2023-01-29T08:26:48;-2.70;99.90
16732;DHT22;8484;50.904;9.192;2023-01-29T08:29:15;-2.70;99.90
16732;DHT22;8484;50.904;9.192;2023-01-29T08:31:41;-2.70;99.90
16732;DHT22;8484;50.904;9.192;2023-01-29T08:34:08;-2.70;99.90
16732;DHT22;8484;50.904;9.192;2023-01-29T08:36:35;-2.50;99.90
16732;DHT22;8484;50.904;9.192;2023-01-29T08:39:02;-2.50;99.90
16732;DHT22;8484;50.904;9.192;2023-01-29T08:41:29;-2.60;99.90
16732;DHT22;8484;50.904;9.192;2023-01-29T08:43:57;-2.60;99.90
16732;DHT22;8484;50.904;9.192;2023-01-29T08:46:26;-2.70;99.90
16732;DHT22;8484;50.904;9.192;2023-01-29T08:48:53;-2.60;99.90
16732;DHT22;8484;50.904;9.192;2023-01-29T08:51:21;-2.60;99.90
16732;DHT22;8484;50.904;9.192;2023-01-29T08:53:48;-2.60;99.90
16732;DHT22;8484;50.904;9.192;2023-01-29T08:56:14;-2.60;99.90
16732;DHT22;8484;50.904;9.192;2023-01-29T08:58:42;-2.60;99.90
16732;DHT22;8484;50.904;9.192;2023-01-29T09:01:11;-2.50;99.90
16732;DHT22;8484;50.904;9.192;2023-01-29T09:03:38;-2.60;99.90
16732;DHT22;8484;50.904;9.192;2023-01-29T09:06:07;-2.50;99.90
16732;DHT22;8484;50.904;9.192;2023-01-29T09:08:34;-2.40;99.90
16732;DHT22;8484;50.904;9.192;2023-01-29T09:11:00;-2.40;99.90
16732;DHT22;8484;50.904;9.192;2023-01-29T09:13:27;-2.40;99.90
16732;DHT22;8484;50.904;9.192;2023-01-29T09:15:57;-2.30;99.90
16732;DHT22;8484;50.904;9.192;2023-01-29T09:18:26;-2.20;99.90
16732;DHT22;8484;50.904;9.192;2023-01-29T09:20:53;-2.10;99.90
16732;DHT22;8484;50.904;9.192;2023-01-29T09:23:20;-2.00;99.90
16732;DHT22;8484;50.904;9.192;2023-01-29T09:25:47;-2.10;99.90
16732;DHT22;8484;50.904;9.192;2023-01-29T09:28:14;-2.00;99.90
16732;DHT22;8484;50.904;9.192;2023-01-29T09:30:42;-2.10;99.90
16732;DHT22;8484;50.904;9.192;2023-01-29T09:33:09;-1.90;99.90
16732;DHT22;8484;50.904;9.192;2023-01-29T09:35:39;-1.90;99.90
16732;DHT22;8484;50.904;9.192;2023-01-29T09:38:06;-1.80;99.90
16732;DHT22;8484;50.904;9.192;2023-01-29T09:40:40;-1.70;99.90
16732;DHT22;8484;50.904;9.192;2023-01-29T09:43:12;-1.50;99.90
16732;DHT22;8484;50.904;9.192;2023-01-29T09:45:49;-1.60;99.90
16732;DHT22;8484;50.904;9.192;2023-01-29T09:48:19;-1.40;99.90
16732;DHT22;8484;50.904;9.192;2023-01-29T09:50:50;-1.20;99.90
16732;DHT22;8484;50.904;9.192;2023-01-29T09:53:23;-1.10;99.90
16732;DHT22;8484;50.904;9.192;2023-01-29T09:55:58;-0.80;99.90
16732;DHT22;8484;50.904;9.192;2023-01-29T09:58:29;-0.80;99.90
16732;DHT22;8484;50.904;9.192;2023-01-29T10:01:02;-0.80;99.90
16732;DHT22;8484;50.904;9.192;2023-01-29T10:03:44;-1.00;99.90
16732;DHT22;8484;50.904;9.192;2023-01-29T10:06:32;-1.00;99.90
16732;DHT22;8484;50.904;9.192;2023-01-29T10:09:30;-0.20;99.90
16732;DHT22;8484;50.904;9.192;2023-01-29T10:12:11;-0.10;99.90
16732;DHT22;8484;50.904;9.192;2023-01-29T10:14:47;0.00;99.90
16732;DHT22;8484;50.904;9.192;2023-01-29T10:17:30;0.30;99.90
16732;DHT22;8484;50.904;9.192;2023-01-29T10:20:12;0.40;99.90
16732;DHT22;8484;50.904;9.192;2023-01-29T10:22:58;0.20;99.90
16732;DHT22;8484;50.904;9.192;2023-01-29T10:25:28;0.30;99.90
16732;DHT22;8484;50.904;9.192;2023-01-29T10:27:59;0.00;99.90
16732;DHT22;8484;50.904;9.192;2023-01-29T10:30:30;-0.10;99.90
16732;DHT22;8484;50.904;9.192;2023-01-29T10:33:01;0.00;99.90
16732;DHT22;8484;50.904;9.192;2023-01-29T10:35:31;-0.30;99.90
16732;DHT22;8484;50.904;9.192;2023-01-29T10:38:17;-0.70;99.90
16732;DHT22;8484;50.904;9.192;2023-01-29T10:40:54;-0.80;99.90
16732;DHT22;8484;50.904;9.192;2023-01-29T10:43:30;-0.50;99.90
16732;DHT22;8484;50.904;9.192;2023-01-29T10:46:08;-0.40;99.90
16732;DHT22;8484;50.904;9.192;2023-01-29T10:48:45;-0.50;99.90
16732;DHT22;8484;50.904;9.192;2023-01-29T10:51:26;-0.20;99.90
16732;DHT22;8484;50.904;9.192;2023-01-29T10:54:05;0.00;99.90
16732;DHT22;8484;50.904;9.192;2023-01-29T10:56:43;0.50;99.90
16732;DHT22;8484;50.904;9.192;2023-01-29T10:59:29;1.10;99.90
16732;DHT22;8484;50.904;9.192;2023-01-29T11:01:58;1.00;99.90
16732;DHT22;8484;50.904;9.192;2023-01-29T11:04:25;0.80;99.90
16732;DHT22;8484;50.904;9.192;2023-01-29T11:06:53;0.80;99.90
16732;DHT22;8484;50.904;9.192;2023-01-29T11:09:27;1.00;99.90
16732;DHT22;8484;50.904;9.192;2023-01-29T11:11:59;1.80;99.90
16732;DHT22;8484;50.904;9.192;2023-01-29T11:14:30;1.90;99.90
16732;DHT22;8484;50.904;9.192;2023-01-29T11:16:59;1.20;99.90
16732;DHT22;8484;50.904;9.192;2023-01-29T11:19:36;1.50;99.90
16732;DHT22;8484;50.904;9.192;2023-01-29T11:22:03;1.50;99.90
16732;DHT22;8484;50.904;9.192;2023-01-29T11:24:35;1.10;99.90
16732;DHT22;8484;50.904;9.192;2023-01-29T11:27:12;1.50;99.90
16732;DHT22;8484;50.904;9.192;2023-01-29T11:29:42;1.20;99.90
16732;DHT22;8484;50.904;9.192;2023-01-29T11:32:12;0.80;99.90
16732;DHT22;8484;50.904;9.192;2023-01-29T11:34:59;0.50;99.90
16732;DHT22;8484;50.904;9.192;2023-01-29T11:37:34;0.50;99.90
16732;DHT22;8484;50.904;9.192;2023-01-29T11:40:31;1.00;99.90
16732;DHT22;8484;50.904;9.192;2023-01-29T11:43:18;1.00;99.90
16732;DHT22;8484;50.904;9.192;2023-01-29T11:45:45;0.90;99.90
16732;DHT22;8484;50.904;9.192;2023-01-29T11:48:15;0.70;99.90
16732;DHT22;8484;50.904;9.192;2023-01-29T11:50:43;0.80;99.90
16732;DHT22;8484;50.904;9.192;2023-01-29T11:53:25;1.00;99.90
16732;DHT22;8484;50.904;9.192;2023-01-29T11:55:58;0.60;99.90
16732;DHT22;8484;50.904;9.192;2023-01-29T11:58:27;0.60;99.90
16732;DHT22;8484;50.904;9.192;2023-01-29T12:00:56;0.70;99.90
16732;DHT22;8484;50.904;9.192;2023-01-29T12:03:31;1.00;99.90
16732;DHT22;8484;50.904;9.192;2023-01-29T12:06:01;0.60;99.90
16732;DHT22;8484;50.904;9.192;2023-01-29T12:08:34;0.70;99.90
16732;DHT22;8484;50.904;9.192;2023-01-29T12:11:11;0.30;99.90
16732;DHT22;8484;50.904;9.192;2023-01-29T12:13:40;0.60;99.90
16732;DHT22;8484;50.904;9.192;2023-01-29T12:16:16;1.20;99.90
16732;DHT22;8484;50.904;9.192;2023-01-29T12:18:48;1.30;99.90
16732;DHT22;8484;50.904;9.192;2023-01-29T12:21:19;1.80;99.90
16732;DHT22;8484;50.904;9.192;2023-01-29T12:23:52;2.00;99.90
16732;DHT22;8484;50.904;9.192;2023-01-29T12:26:26;2.30;99.90
16732;DHT22;8484;50.904;9.192;2023-01-29T12:29:10;2.20;99.90
16732;DHT22;8484;50.904;9.192;2023-01-29T12:31:43;2.00;99.90
16732;DHT22;8484;50.904;9.192;2023-01-29T12:34:16;2.70;99.90
16732;DHT22;8484;50.904;9.192;2023-01-29T12:36:48;2.20;99.90
16732;DHT22;8484;50.904;9.192;2023-01-29T12:39:18;2.90;99.90
16732;DHT22;8484;50.904;9.192;2023-01-29T12:41:51;3.10;99.90
16732;DHT22;8484;50.904;9.192;2023-01-29T12:44:21;1.80;99.90
16732;DHT22;8484;50.904;9.192;2023-01-29T12:46:53;1.50;99.90
16732;DHT22;8484;50.904;9.192;2023-01-29T12:49:24;1.40;99.90
16732;DHT22;8484;50.904;9.192;2023-01-29T12:51:56;1.30;99.90
16732;DHT22;8484;50.904;9.192;2023-01-29T12:54:32;0.80;99.90
16732;DHT22;8484;50.904;9.192;2023-01-29T12:57:06;1.10;99.90
16732;DHT22;8484;50.904;9.192;2023-01-29T12:59:40;1.00;99.90
16732;DHT22;8484;50.904;9.192;2023-01-29T13:02:29;1.10;99.90
16732;DHT22;8484;50.904;9.192;2023-01-29T13:05:01;1.20;99.90
16732;DHT22;8484;50.904;9.192;2023-01-29T13:07:32;1.00;99.90
16732;DHT22;8484;50.904;9.192;2023-01-29T13:10:04;1.00;99.90
16732;DHT22;8484;50.904;9.192;2023-01-29T13:12:38;0.90;99.90
16732;DHT22;8484;50.904;9.192;2023-01-29T13:15:14;0.50;99.90
16732;DHT22;8484;50.904;9.192;2023-01-29T13:17:46;0.50;99.90
16732;DHT22;8484;50.904;9.192;2023-01-29T13:20:17;0.70;99.90
16732;DHT22;8484;50.904;9.192;2023-01-29T13:22:46;0.50;99.90
16732;DHT22;8484;50.904;9.192;2023-01-29T13:25:15;0.70;99.90
16732;DHT22;8484;50.904;9.192;2023-01-29T13:27:45;0.60;99.90
16732;DHT22;8484;50.904;9.192;2023-01-29T13:30:24;0.80;99.90
16732;DHT22;8484;50.904;9.192;2023-01-29T13:32:51;0.80;99.90
16732;DHT22;8484;50.904;9.192;2023-01-29T13:35:20;0.70;99.90
16732;DHT22;8484;50.904;9.192;2023-01-29T13:37:49;0.50;99.90
16732;DHT22;8484;50.904;9.192;2023-01-29T13:40:22;0.60;99.90
16732;DHT22;8484;50.904;9.192;2023-01-29T13:42:52;0.40;99.90
16732;DHT22;8484;50.904;9.192;2023-01-29T13:45:22;0.50;99.90
16732;DHT22;8484;50.904;9.192;2023-01-29T13:47:50;0.90;99.90
16732;DHT22;8484;50.904;9.192;2023-01-29T13:50:20;0.60;99.90
16732;DHT22;8484;50.904;9.192;2023-01-29T13:52:54;0.70;99.90
16732;DHT22;8484;50.904;9.192;2023-01-29T13:55:26;0.70;99.90
16732;DHT22;8484;50.904;9.192;2023-01-29T13:57:57;0.80;99.90
16732;DHT22;8484;50.904;9.192;2023-01-29T14:00:48;0.70;99.90
16732;DHT22;8484;50.904;9.192;2023-01-29T14:03:44;0.40;99.90
16732;DHT22;8484;50.904;9.192;2023-01-29T14:12:32;0.20;99.90
16732;DHT22;8484;50.904;9.192;2023-01-29T14:15:13;0.20;99.90
16732;DHT22;8484;50.904;9.192;2023-01-29T14:18:01;0.00;99.90
16732;DHT22;8484;50.904;9.192;2023-01-29T14:20:32;0.10;99.90
16732;DHT22;8484;50.904;9.192;2023-01-29T14:23:00;0.10;99.90
16732;DHT22;8484;50.904;9.192;2023-01-29T14:25:30;0.20;99.90
16732;DHT22;8484;50.904;9.192;2023-01-29T14:27:57;0.30;99.90
16732;DHT22;8484;50.904;9.192;2023-01-29T14:30:29;0.10;99.90
16732;DHT22;8484;50.904;9.192;2023-01-29T14:32:56;0.00;99.90
16732;DHT22;8484;50.904;9.192;2023-01-29T14:35:25;-0.10;99.90
16732;DHT22;8484;50.904;9.192;2023-01-29T14:37:55;-0.10;99.90
16732;DHT22;8484;50.904;9.192;2023-01-29T14:40:24;0.00;99.90
16732;DHT22;8484;50.904;9.192;2023-01-29T14:42:58;-0.10;99.90
16732;DHT22;8484;50.904;9.192;2023-01-29T14:45:28;-0.10;99.90
16732;DHT22;8484;50.904;9.192;2023-01-29T14:48:15;-0.10;99.90
16732;DHT22;8484;50.904;9.192;2023-01-29T14:50:47;-0.30;99.90
16732;DHT22;8484;50.904;9.192;2023-01-29T14:53:19;-0.30;99.90
16732;DHT22;8484;50.904;9.192;2023-01-29T14:55:53;-0.20;99.90
16732;DHT22;8484;50.904;9.192;2023-01-29T14:58:27;-0.30;99.90
16732;DHT22;8484;50.904;9.192;2023-01-29T15:00:57;-0.30;99.90
16732;DHT22;8484;50.904;9.192;2023-01-29T15:03:36;-0.30;99.90
16732;DHT22;8484;50.904;9.192;2023-01-29T15:06:05;-0.30;99.90
16732;DHT22;8484;50.904;9.192;2023-01-29T15:08:36;-0.30;99.90
16732;DHT22;8484;50.904;9.192;2023-01-29T15:11:08;-0.30;99.90
16732;DHT22;8484;50.904;9.192;2023-01-29T15:14:17;-0.30;99.90
16732;DHT22;8484;50.904;9.192;2023-01-29T15:17:05;-0.30;99.90
16732;DHT22;8484;50.904;9.192;2023-01-29T15:19:43;-0.30;99.90
16732;DHT22;8484;50.904;9.192;2023-01-29T15:22:11;-0.30;99.90
16732;DHT22;8484;50.904;9.192;2023-01-29T15:24:41;-0.30;99.90
16732;DHT22;8484;50.904;9.192;2023-01-29T15:27:13;-0.30;99.90
16732;DHT22;8484;50.904;9.192;2023-01-29T15:29:41;-0.30;99.90
16732;DHT22;8484;50.904;9.192;2023-01-29T15:32:18;-0.30;99.90
16732;DHT22;8484;50.904;9.192;2023-01-29T15:34:54;-0.30;99.90
16732;DHT22;8484;50.904;9.192;2023-01-29T15:37:26;-0.30;99.90
16732;DHT22;8484;50.904;9.192;2023-01-29T15:39:53;-0.30;99.90
16732;DHT22;8484;50.904;9.192;2023-01-29T15:42:21;-0.30;99.90
16732;DHT22;8484;50.904;9.192;2023-01-29T15:44:51;-0.30;99.90
16732;DHT22;8484;50.904;9.192;2023-01-29T15:47:26;-0.30;99.90
16732;DHT22;8484;50.904;9.192;2023-01-29T15:49:54;-0.30;99.90
16732;DHT22;8484;50.904;9.192;2023-01-29T15:52:26;-0.40;99.90
16732;DHT22;8484;50.904;9.192;2023-01-29T15:54:55;-0.40;99.90
16732;DHT22;8484;50.904;9.192;2023-01-29T15:57:24;-0.40;99.90
16732;DHT22;8484;50.904;9.192;2023-01-29T15:59:54;-0.40;99.90
16732;DHT22;8484;50.904;9.192;2023-01-29T16:02:35;-0.50;99.90
16732;DHT22;8484;50.904;9.192;2023-01-29T16:05:04;-0.50;99.90
16732;DHT22;8484;50.904;9.192;2023-01-29T16:07:33;-0.40;99.90
16732;DHT22;8484;50.904;9.192;2023-01-29T16:10:01;-0.40;99.90
16732;DHT22;8484;50.904;9.192;2023-01-29T16:12:28;-0.40;99.90
16732;DHT22;8484;50.904;9.192;2023-01-29T16:14:55;-0.30;99.90
16732;DHT22;8484;50.904;9.192;2023-01-29T16:17:24;-0.40;99.90
16732;DHT22;8484;50.904;9.192;2023-01-29T16:19:57;-0.40;99.90
16732;DHT22;8484;50.904;9.192;2023-01-29T16:22:25;-0.50;99.90
16732;DHT22;8484;50.904;9.192;2023-01-29T16:24:54;-0.50;99.90
16732;DHT22;8484;50.904;9.192;2023-01-29T16:27:23;-0.50;99.90